sensor_id;sensor_type;location;lat;lon;timestamp;pressure;altitude;pressure_sealevel;temperature
22322;BMP180;11328;53.928;18.522;2023-08-21T00:00:52;100917.00;;;24.60
22322;BMP180;11328;53.928;18.522;2023-08-21T00:03:19;100927.00;;;24.60
22322;BMP180;11328;53.928;18.522;2023-08-21T00:05:46;100916.00;;;24.60
22322;BMP180;11328;53.928;18.522;2023-08-21T00:08:13;100918.00;;;24.60
22322;BMP180;11328;53.928;18.522;2023-08-21T00:10:40;100920.00;;;24.40
22322;BMP180;11328;53.928;18.522;2023-08-21T00:13:08;100923.00;;;24.40
22322;BMP180;11328;53.928;18.522;2023-08-21T00:15:37;100916.00;;;24.40
22322;BMP180;11328;53.928;18.522;2023-08-21T00:18:06;100912.00;;;24.50
22322;BMP180;11328;53.928;18.522;2023-08-21T00:20:33;100919.00;;;24.50
22322;BMP180;11328;53.928;18.522;2023-08-21T00:23:00;100914.00;;;24.70
22322;BMP180;11328;53.928;18.522;2023-08-21T00:25:27;100921.00;;;24.80
22322;BMP180;11328;53.928;18.522;2023-08-21T00:27:54;100915.00;;;24.90
22322;BMP180;11328;53.928;18.522;2023-08-21T00:30:21;100923.00;;;24.90
22322;BMP180;11328;53.928;18.522;2023-08-21T00:32:48;100916.00;;;24.80
22322;BMP180;11328;53.928;18.522;2023-08-21T00:35:15;100913.00;;;24.90
22322;BMP180;11328;53.928;18.522;2023-08-21T00:37:42;100921.00;;;24.70
22322;BMP180;11328;53.928;18.522;2023-08-21T00:40:10;100913.00;;;24.60
22322;BMP180;11328;53.928;18.522;2023-08-21T00:42:37;100916.00;;;24.50
22322;BMP180;11328;53.928;18.522;2023-08-21T00:45:05;100913.00;;;24.50
22322;BMP180;11328;53.928;18.522;2023-08-21T00:47:36;100927.00;;;24.50
22322;BMP180;11328;53.928;18.522;2023-08-21T00:50:05;100913.00;;;24.50
22322;BMP180;11328;53.928;18.522;2023-08-21T00:52:39;100903.00;;;24.50
22322;BMP180;11328;53.928;18.522;2023-08-21T00:55:08;100902.00;;;24.50
22322;BMP180;11328;53.928;18.522;2023-08-21T00:57:36;100908.00;;;24.40
22322;BMP180;11328;53.928;18.522;2023-08-21T01:00:05;100913.00;;;24.40
22322;BMP180;11328;53.928;18.522;2023-08-21T01:02:32;100915.00;;;24.40
22322;BMP180;11328;53.928;18.522;2023-08-21T01:04:59;100910.00;;;24.50
22322;BMP180;11328;53.928;18.522;2023-08-21T01:07:26;100907.00;;;24.40
22322;BMP180;11328;53.928;18.522;2023-08-21T01:13:11;100901.00;;;24.40
22322;BMP180;11328;53.928;18.522;2023-08-21T01:15:42;100905.00;;;24.30
22322;BMP180;11328;53.928;18.522;2023-08-21T01:18:11;100907.00;;;24.10
22322;BMP180;11328;53.928;18.522;2023-08-21T01:20:39;100902.00;;;24.10
22322;BMP180;11328;53.928;18.522;2023-08-21T01:23:07;100896.00;;;24.30
22322;BMP180;11328;53.928;18.522;2023-08-21T01:25:34;100899.00;;;24.30
22322;BMP180;11328;53.928;18.522;2023-08-21T01:28:01;100904.00;;;24.10
22322;BMP180;11328;53.928;18.522;2023-08-21T01:30:32;100902.00;;;23.90
22322;BMP180;11328;53.928;18.522;2023-08-21T01:33:10;100911.00;;;23.60
22322;BMP180;11328;53.928;18.522;2023-08-21T01:35:40;100905.00;;;23.40
22322;BMP180;11328;53.928;18.522;2023-08-21T01:38:07;100899.00;;;23.30
22322;BMP180;11328;53.928;18.522;2023-08-21T01:40:34;100901.00;;;23.20
22322;BMP180;11328;53.928;18.522;2023-08-21T01:43:01;100902.00;;;23.10
22322;BMP180;11328;53.928;18.522;2023-08-21T01:45:28;100901.00;;;22.90
22322;BMP180;11328;53.928;18.522;2023-08-21T01:47:55;100903.00;;;22.80
22322;BMP180;11328;53.928;18.522;2023-08-21T01:50:22;100909.00;;;22.80
22322;BMP180;11328;53.928;18.522;2023-08-21T01:52:49;100910.00;;;22.80
22322;BMP180;11328;53.928;18.522;2023-08-21T01:55:16;100908.00;;;22.80
22322;BMP180;11328;53.928;18.522;2023-08-21T01:57:43;100910.00;;;22.80
22322;BMP180;11328;53.928;18.522;2023-08-21T02:00:11;100951.00;;;22.70
22322;BMP180;11328;53.928;18.522;2023-08-21T02:02:39;100907.00;;;22.70
22322;BMP180;11328;53.928;18.522;2023-08-21T02:05:07;100908.00;;;22.50
22322;BMP180;11328;53.928;18.522;2023-08-21T02:07:34;100907.00;;;22.50
22322;BMP180;11328;53.928;18.522;2023-08-21T02:10:01;100891.00;;;22.60
22322;BMP180;11328;53.928;18.522;2023-08-21T02:12:28;100897.00;;;22.60
22322;BMP180;11328;53.928;18.522;2023-08-21T02:14:54;100903.00;;;22.60
22322;BMP180;11328;53.928;18.522;2023-08-21T02:17:21;100900.00;;;22.40
22322;BMP180;11328;53.928;18.522;2023-08-21T02:19:48;100905.00;;;22.50
22322;BMP180;11328;53.928;18.522;2023-08-21T02:22:15;100901.00;;;22.50
22322;BMP180;11328;53.928;18.522;2023-08-21T02:24:42;100903.00;;;22.40
22322;BMP180;11328;53.928;18.522;2023-08-21T02:27:09;100905.00;;;22.20
22322;BMP180;11328;53.928;18.522;2023-08-21T02:29:36;100906.00;;;22.20
22322;BMP180;11328;53.928;18.522;2023-08-21T02:32:03;100909.00;;;22.20
22322;BMP180;11328;53.928;18.522;2023-08-21T02:34:30;100910.00;;;22.20
22322;BMP180;11328;53.928;18.522;2023-08-21T02:36:57;100911.00;;;22.20
22322;BMP180;11328;53.928;18.522;2023-08-21T02:39:25;100901.00;;;22.20
22322;BMP180;11328;53.928;18.522;2023-08-21T02:41:52;100907.00;;;22.30
22322;BMP180;11328;53.928;18.522;2023-08-21T02:44:18;100908.00;;;22.20
22322;BMP180;11328;53.928;18.522;2023-08-21T02:46:45;100910.00;;;22.20
22322;BMP180;11328;53.928;18.522;2023-08-21T02:49:12;100906.00;;;22.10
22322;BMP180;11328;53.928;18.522;2023-08-21T02:51:39;100910.00;;;22.00
22322;BMP180;11328;53.928;18.522;2023-08-21T02:54:06;100906.00;;;21.80
22322;BMP180;11328;53.928;18.522;2023-08-21T02:56:33;100912.00;;;21.80
22322;BMP180;11328;53.928;18.522;2023-08-21T02:59:00;100905.00;;;21.60
22322;BMP180;11328;53.928;18.522;2023-08-21T03:01:27;100901.00;;;21.40
22322;BMP180;11328;53.928;18.522;2023-08-21T03:03:54;100909.00;;;21.30
22322;BMP180;11328;53.928;18.522;2023-08-21T03:06:21;100893.00;;;21.20
22322;BMP180;11328;53.928;18.522;2023-08-21T03:08:51;100901.00;;;21.20
22322;BMP180;11328;53.928;18.522;2023-08-21T03:11:17;100902.00;;;21.20
22322;BMP180;11328;53.928;18.522;2023-08-21T03:13:44;100900.00;;;21.30
22322;BMP180;11328;53.928;18.522;2023-08-21T03:16:11;100897.00;;;21.30
22322;BMP180;11328;53.928;18.522;2023-08-21T03:18:58;100908.00;;;21.40
22322;BMP180;11328;53.928;18.522;2023-08-21T03:21:27;100916.00;;;21.30
22322;BMP180;11328;53.928;18.522;2023-08-21T03:23:59;100912.00;;;21.30
22322;BMP180;11328;53.928;18.522;2023-08-21T03:26:30;100919.00;;;21.20
22322;BMP180;11328;53.928;18.522;2023-08-21T03:28:57;100908.00;;;21.20
22322;BMP180;11328;53.928;18.522;2023-08-21T03:31:24;100922.00;;;21.10
22322;BMP180;11328;53.928;18.522;2023-08-21T03:33:51;100918.00;;;21.00
22322;BMP180;11328;53.928;18.522;2023-08-21T03:36:19;100921.00;;;20.70
22322;BMP180;11328;53.928;18.522;2023-08-21T03:38:46;100909.00;;;20.70
22322;BMP180;11328;53.928;18.522;2023-08-21T03:41:13;100912.00;;;20.70
22322;BMP180;11328;53.928;18.522;2023-08-21T03:43:39;100906.00;;;20.60
22322;BMP180;11328;53.928;18.522;2023-08-21T03:46:06;100913.00;;;20.70
22322;BMP180;11328;53.928;18.522;2023-08-21T03:48:33;100906.00;;;20.60
22322;BMP180;11328;53.928;18.522;2023-08-21T03:51:00;100901.00;;;20.50
22322;BMP180;11328;53.928;18.522;2023-08-21T03:53:27;100899.00;;;20.70
22322;BMP180;11328;53.928;18.522;2023-08-21T03:55:54;100903.00;;;20.60
22322;BMP180;11328;53.928;18.522;2023-08-21T03:58:21;100891.00;;;20.70
22322;BMP180;11328;53.928;18.522;2023-08-21T04:00:48;100889.00;;;20.80
22322;BMP180;11328;53.928;18.522;2023-08-21T04:03:15;100887.00;;;20.70
22322;BMP180;11328;53.928;18.522;2023-08-21T04:05:42;100883.00;;;20.70
22322;BMP180;11328;53.928;18.522;2023-08-21T04:08:09;100866.00;;;20.70
22322;BMP180;11328;53.928;18.522;2023-08-21T04:10:36;100875.00;;;20.70
22322;BMP180;11328;53.928;18.522;2023-08-21T04:13:03;100881.00;;;20.70
22322;BMP180;11328;53.928;18.522;2023-08-21T04:15:30;100862.00;;;20.50
22322;BMP180;11328;53.928;18.522;2023-08-21T04:17:57;100877.00;;;20.60
22322;BMP180;11328;53.928;18.522;2023-08-21T04:20:24;100880.00;;;20.50
22322;BMP180;11328;53.928;18.522;2023-08-21T04:22:51;100878.00;;;20.50
22322;BMP180;11328;53.928;18.522;2023-08-21T04:25:18;100890.00;;;20.50
22322;BMP180;11328;53.928;18.522;2023-08-21T04:27:45;100887.00;;;20.40
22322;BMP180;11328;53.928;18.522;2023-08-21T04:30:12;100890.00;;;20.40
22322;BMP180;11328;53.928;18.522;2023-08-21T04:32:39;100887.00;;;20.50
22322;BMP180;11328;53.928;18.522;2023-08-21T04:35:07;100886.00;;;20.40
22322;BMP180;11328;53.928;18.522;2023-08-21T04:37:38;100892.00;;;20.40
22322;BMP180;11328;53.928;18.522;2023-08-21T04:40:05;100883.00;;;20.50
22322;BMP180;11328;53.928;18.522;2023-08-21T04:42:32;100893.00;;;20.50
22322;BMP180;11328;53.928;18.522;2023-08-21T04:44:59;100895.00;;;20.50
22322;BMP180;11328;53.928;18.522;2023-08-21T04:47:27;100887.00;;;20.50
22322;BMP180;11328;53.928;18.522;2023-08-21T04:49:55;100888.00;;;20.40
22322;BMP180;11328;53.928;18.522;2023-08-21T04:52:23;100886.00;;;20.50
22322;BMP180;11328;53.928;18.522;2023-08-21T04:54:52;100887.00;;;20.40
22322;BMP180;11328;53.928;18.522;2023-08-21T04:57:19;100865.00;;;20.50
22322;BMP180;11328;53.928;18.522;2023-08-21T04:59:48;100886.00;;;20.60
22322;BMP180;11328;53.928;18.522;2023-08-21T05:02:15;100886.00;;;20.60
22322;BMP180;11328;53.928;18.522;2023-08-21T05:04:42;100891.00;;;20.70
22322;BMP180;11328;53.928;18.522;2023-08-21T05:07:09;100895.00;;;20.70
22322;BMP180;11328;53.928;18.522;2023-08-21T05:09:35;100893.00;;;20.70
22322;BMP180;11328;53.928;18.522;2023-08-21T05:12:03;100872.00;;;20.60
22322;BMP180;11328;53.928;18.522;2023-08-21T05:14:30;100890.00;;;20.70
22322;BMP180;11328;53.928;18.522;2023-08-21T05:16:57;100893.00;;;21.00
22322;BMP180;11328;53.928;18.522;2023-08-21T05:19:24;100893.00;;;21.10
22322;BMP180;11328;53.928;18.522;2023-08-21T05:21:54;100878.00;;;21.20
22322;BMP180;11328;53.928;18.522;2023-08-21T05:24:21;100897.00;;;21.10
22322;BMP180;11328;53.928;18.522;2023-08-21T05:26:48;100904.00;;;21.20
22322;BMP180;11328;53.928;18.522;2023-08-21T05:29:15;100907.00;;;21.40
22322;BMP180;11328;53.928;18.522;2023-08-21T05:31:42;100901.00;;;21.60
22322;BMP180;11328;53.928;18.522;2023-08-21T05:34:09;100913.00;;;21.70
22322;BMP180;11328;53.928;18.522;2023-08-21T05:36:36;100916.00;;;21.60
22322;BMP180;11328;53.928;18.522;2023-08-21T05:39:05;100921.00;;;21.50
22322;BMP180;11328;53.928;18.522;2023-08-21T05:41:33;100919.00;;;21.40
22322;BMP180;11328;53.928;18.522;2023-08-21T05:44:00;100909.00;;;21.60
22322;BMP180;11328;53.928;18.522;2023-08-21T05:46:27;100924.00;;;21.70
22322;BMP180;11328;53.928;18.522;2023-08-21T05:48:54;100918.00;;;21.70
22322;BMP180;11328;53.928;18.522;2023-08-21T05:51:21;100934.00;;;21.80
22322;BMP180;11328;53.928;18.522;2023-08-21T05:53:48;100929.00;;;22.10
22322;BMP180;11328;53.928;18.522;2023-08-21T05:56:15;100929.00;;;22.10
22322;BMP180;11328;53.928;18.522;2023-08-21T05:58:42;100933.00;;;22.00
22322;BMP180;11328;53.928;18.522;2023-08-21T06:01:09;100932.00;;;22.00
22322;BMP180;11328;53.928;18.522;2023-08-21T06:03:36;100932.00;;;22.30
22322;BMP180;11328;53.928;18.522;2023-08-21T06:06:03;100933.00;;;22.50
22322;BMP180;11328;53.928;18.522;2023-08-21T06:08:30;100930.00;;;22.50
22322;BMP180;11328;53.928;18.522;2023-08-21T06:10:56;100931.00;;;22.70
22322;BMP180;11328;53.928;18.522;2023-08-21T06:13:25;100934.00;;;23.00
22322;BMP180;11328;53.928;18.522;2023-08-21T06:15:53;100937.00;;;23.10
22322;BMP180;11328;53.928;18.522;2023-08-21T06:18:20;100944.00;;;23.30
22322;BMP180;11328;53.928;18.522;2023-08-21T06:20:48;100946.00;;;23.40
22322;BMP180;11328;53.928;18.522;2023-08-21T06:23:20;100947.00;;;23.20
22322;BMP180;11328;53.928;18.522;2023-08-21T06:25:50;100952.00;;;23.10
22322;BMP180;11328;53.928;18.522;2023-08-21T06:28:17;100953.00;;;22.90
22322;BMP180;11328;53.928;18.522;2023-08-21T06:30:44;100955.00;;;23.00
22322;BMP180;11328;53.928;18.522;2023-08-21T06:33:11;100888.00;;;22.90
22322;BMP180;11328;53.928;18.522;2023-08-21T06:35:38;100955.00;;;22.90
22322;BMP180;11328;53.928;18.522;2023-08-21T06:38:05;100966.00;;;22.70
22322;BMP180;11328;53.928;18.522;2023-08-21T06:40:33;100974.00;;;23.00
22322;BMP180;11328;53.928;18.522;2023-08-21T06:42:59;100979.00;;;23.20
22322;BMP180;11328;53.928;18.522;2023-08-21T06:45:27;100976.00;;;23.50
22322;BMP180;11328;53.928;18.522;2023-08-21T06:47:57;100984.00;;;23.90
22322;BMP180;11328;53.928;18.522;2023-08-21T06:50:24;100984.00;;;23.90
22322;BMP180;11328;53.928;18.522;2023-08-21T06:52:51;100980.00;;;23.90
22322;BMP180;11328;53.928;18.522;2023-08-21T06:55:18;100969.00;;;24.10
22322;BMP180;11328;53.928;18.522;2023-08-21T06:57:45;100977.00;;;24.10
22322;BMP180;11328;53.928;18.522;2023-08-21T07:00:12;100988.00;;;24.10
22322;BMP180;11328;53.928;18.522;2023-08-21T07:02:39;100986.00;;;23.70
22322;BMP180;11328;53.928;18.522;2023-08-21T07:05:07;100976.00;;;23.60
22322;BMP180;11328;53.928;18.522;2023-08-21T07:07:38;100976.00;;;23.90
22322;BMP180;11328;53.928;18.522;2023-08-21T07:10:05;100971.00;;;24.00
22322;BMP180;11328;53.928;18.522;2023-08-21T07:12:32;100977.00;;;24.10
22322;BMP180;11328;53.928;18.522;2023-08-21T07:14:59;100977.00;;;24.30
22322;BMP180;11328;53.928;18.522;2023-08-21T07:17:26;100974.00;;;24.50
22322;BMP180;11328;53.928;18.522;2023-08-21T07:19:53;100970.00;;;24.60
22322;BMP180;11328;53.928;18.522;2023-08-21T07:22:20;100974.00;;;24.80
22322;BMP180;11328;53.928;18.522;2023-08-21T07:24:47;100971.00;;;24.70
22322;BMP180;11328;53.928;18.522;2023-08-21T07:27:15;100968.00;;;24.70
22322;BMP180;11328;53.928;18.522;2023-08-21T07:29:42;100971.00;;;25.00
22322;BMP180;11328;53.928;18.522;2023-08-21T07:32:09;100978.00;;;25.30
22322;BMP180;11328;53.928;18.522;2023-08-21T07:34:36;100985.00;;;25.20
22322;BMP180;11328;53.928;18.522;2023-08-21T07:37:03;100982.00;;;24.80
22322;BMP180;11328;53.928;18.522;2023-08-21T07:39:30;100988.00;;;24.50
22322;BMP180;11328;53.928;18.522;2023-08-21T07:41:57;100974.00;;;24.60
22322;BMP180;11328;53.928;18.522;2023-08-21T07:44:24;100973.00;;;24.60
22322;BMP180;11328;53.928;18.522;2023-08-21T07:46:51;100971.00;;;24.90
22322;BMP180;11328;53.928;18.522;2023-08-21T07:49:18;100964.00;;;25.60
22322;BMP180;11328;53.928;18.522;2023-08-21T07:51:45;100962.00;;;25.90
22322;BMP180;11328;53.928;18.522;2023-08-21T07:54:12;100985.00;;;26.00
22322;BMP180;11328;53.928;18.522;2023-08-21T07:56:39;100974.00;;;26.00
22322;BMP180;11328;53.928;18.522;2023-08-21T07:59:07;100969.00;;;26.40
22322;BMP180;11328;53.928;18.522;2023-08-21T08:01:34;100963.00;;;26.70
22322;BMP180;11328;53.928;18.522;2023-08-21T08:04:01;100959.00;;;26.60
22322;BMP180;11328;53.928;18.522;2023-08-21T08:06:29;100955.00;;;26.90
22322;BMP180;11328;53.928;18.522;2023-08-21T08:08:56;100950.00;;;26.80
22322;BMP180;11328;53.928;18.522;2023-08-21T08:11:23;100940.00;;;26.90
22322;BMP180;11328;53.928;18.522;2023-08-21T08:13:50;100945.00;;;27.20
22322;BMP180;11328;53.928;18.522;2023-08-21T08:16:17;100943.00;;;27.20
22322;BMP180;11328;53.928;18.522;2023-08-21T08:18:44;100953.00;;;27.00
22322;BMP180;11328;53.928;18.522;2023-08-21T08:21:11;100957.00;;;27.10
22322;BMP180;11328;53.928;18.522;2023-08-21T08:23:38;100959.00;;;26.90
22322;BMP180;11328;53.928;18.522;2023-08-21T08:26:05;100953.00;;;27.10
22322;BMP180;11328;53.928;18.522;2023-08-21T08:28:32;100966.00;;;27.30
22322;BMP180;11328;53.928;18.522;2023-08-21T08:30:59;100960.00;;;27.30
22322;BMP180;11328;53.928;18.522;2023-08-21T08:33:27;100952.00;;;27.40
22322;BMP180;11328;53.928;18.522;2023-08-21T08:35:54;100966.00;;;26.80
22322;BMP180;11328;53.928;18.522;2023-08-21T08:38:21;100963.00;;;26.80
22322;BMP180;11328;53.928;18.522;2023-08-21T08:40:50;100962.00;;;27.00
22322;BMP180;11328;53.928;18.522;2023-08-21T08:43:19;100949.00;;;26.90
22322;BMP180;11328;53.928;18.522;2023-08-21T08:45:49;100953.00;;;27.00
22322;BMP180;11328;53.928;18.522;2023-08-21T08:48:17;100957.00;;;27.10
22322;BMP180;11328;53.928;18.522;2023-08-21T08:50:47;100951.00;;;27.30
22322;BMP180;11328;53.928;18.522;2023-08-21T08:53:15;100928.00;;;27.10
22322;BMP180;11328;53.928;18.522;2023-08-21T08:55:44;100945.00;;;27.10
22322;BMP180;11328;53.928;18.522;2023-08-21T08:58:12;100947.00;;;27.60
22322;BMP180;11328;53.928;18.522;2023-08-21T09:00:39;100952.00;;;27.60
22322;BMP180;11328;53.928;18.522;2023-08-21T09:03:06;100953.00;;;28.00
22322;BMP180;11328;53.928;18.522;2023-08-21T09:05:34;100958.00;;;28.00
22322;BMP180;11328;53.928;18.522;2023-08-21T09:08:12;100935.00;;;28.40
22322;BMP180;11328;53.928;18.522;2023-08-21T09:10:41;100956.00;;;28.60
22322;BMP180;11328;53.928;18.522;2023-08-21T09:13:15;100952.00;;;28.10
22322;BMP180;11328;53.928;18.522;2023-08-21T09:15:52;100950.00;;;27.90
22322;BMP180;11328;53.928;18.522;2023-08-21T09:18:20;100947.00;;;28.50
22322;BMP180;11328;53.928;18.522;2023-08-21T09:20:47;100958.00;;;27.90
22322;BMP180;11328;53.928;18.522;2023-08-21T09:23:17;100948.00;;;27.90
22322;BMP180;11328;53.928;18.522;2023-08-21T09:25:47;100946.00;;;28.00
22322;BMP180;11328;53.928;18.522;2023-08-21T09:28:19;100935.00;;;28.20
22322;BMP180;11328;53.928;18.522;2023-08-21T09:30:53;100940.00;;;28.40
22322;BMP180;11328;53.928;18.522;2023-08-21T09:33:23;100938.00;;;28.60
22322;BMP180;11328;53.928;18.522;2023-08-21T09:35:54;100946.00;;;28.30
22322;BMP180;11328;53.928;18.522;2023-08-21T09:38:22;100941.00;;;28.00
22322;BMP180;11328;53.928;18.522;2023-08-21T09:40:54;100942.00;;;28.10
22322;BMP180;11328;53.928;18.522;2023-08-21T09:43:24;100930.00;;;28.40
22322;BMP180;11328;53.928;18.522;2023-08-21T09:45:54;100926.00;;;28.70
22322;BMP180;11328;53.928;18.522;2023-08-21T09:48:27;100929.00;;;28.80
22322;BMP180;11328;53.928;18.522;2023-08-21T09:50:54;100932.00;;;29.00
22322;BMP180;11328;53.928;18.522;2023-08-21T09:53:23;100929.00;;;29.40
22322;BMP180;11328;53.928;18.522;2023-08-21T09:55:54;100927.00;;;29.20
22322;BMP180;11328;53.928;18.522;2023-08-21T09:58:22;100921.00;;;28.90
22322;BMP180;11328;53.928;18.522;2023-08-21T10:00:50;100926.00;;;28.70
22322;BMP180;11328;53.928;18.522;2023-08-21T10:03:20;100917.00;;;28.70
22322;BMP180;11328;53.928;18.522;2023-08-21T10:05:49;100902.00;;;28.70
22322;BMP180;11328;53.928;18.522;2023-08-21T10:08:23;100941.00;;;28.70
22322;BMP180;11328;53.928;18.522;2023-08-21T10:10:50;100937.00;;;28.40
22322;BMP180;11328;53.928;18.522;2023-08-21T10:13:20;100934.00;;;28.30
22322;BMP180;11328;53.928;18.522;2023-08-21T10:15:47;100916.00;;;28.30
22322;BMP180;11328;53.928;18.522;2023-08-21T10:18:30;100915.00;;;28.60
22322;BMP180;11328;53.928;18.522;2023-08-21T10:23:42;100913.00;;;29.30
22322;BMP180;11328;53.928;18.522;2023-08-21T10:26:13;100901.00;;;29.40
22322;BMP180;11328;53.928;18.522;2023-08-21T10:28:51;100925.00;;;28.70
22322;BMP180;11328;53.928;18.522;2023-08-21T10:33:56;100915.00;;;28.80
22322;BMP180;11328;53.928;18.522;2023-08-21T10:39:23;100928.00;;;29.30
22322;BMP180;11328;53.928;18.522;2023-08-21T10:42:10;100928.00;;;29.30
22322;BMP180;11328;53.928;18.522;2023-08-21T10:49:56;100925.00;;;29.70
22322;BMP180;11328;53.928;18.522;2023-08-21T10:52:34;100920.00;;;29.50
22322;BMP180;11328;53.928;18.522;2023-08-21T10:55:03;100903.00;;;29.10
22322;BMP180;11328;53.928;18.522;2023-08-21T10:57:33;100927.00;;;29.40
22322;BMP180;11328;53.928;18.522;2023-08-21T11:00:14;100924.00;;;29.70
22322;BMP180;11328;53.928;18.522;2023-08-21T11:02:48;100918.00;;;29.80
22322;BMP180;11328;53.928;18.522;2023-08-21T11:05:17;100914.00;;;30.10
22322;BMP180;11328;53.928;18.522;2023-08-21T11:07:47;100924.00;;;30.10
22322;BMP180;11328;53.928;18.522;2023-08-21T11:10:19;100934.00;;;30.10
22322;BMP180;11328;53.928;18.522;2023-08-21T11:12:58;100930.00;;;29.60
22322;BMP180;11328;53.928;18.522;2023-08-21T11:15:30;100923.00;;;29.40
22322;BMP180;11328;53.928;18.522;2023-08-21T11:18:03;100927.00;;;29.60
22322;BMP180;11328;53.928;18.522;2023-08-21T11:20:32;100926.00;;;29.80
22322;BMP180;11328;53.928;18.522;2023-08-21T11:23:05;100931.00;;;29.60
22322;BMP180;11328;53.928;18.522;2023-08-21T11:25:38;100929.00;;;29.30
22322;BMP180;11328;53.928;18.522;2023-08-21T11:28:06;100927.00;;;29.50
22322;BMP180;11328;53.928;18.522;2023-08-21T11:30:33;100927.00;;;29.70
22322;BMP180;11328;53.928;18.522;2023-08-21T11:33:08;100926.00;;;29.50
22322;BMP180;11328;53.928;18.522;2023-08-21T11:35:36;100924.00;;;29.40
22322;BMP180;11328;53.928;18.522;2023-08-21T11:38:21;100919.00;;;29.20
22322;BMP180;11328;53.928;18.522;2023-08-21T11:40:58;100919.00;;;29.00
22322;BMP180;11328;53.928;18.522;2023-08-21T11:43:40;100906.00;;;29.20
22322;BMP180;11328;53.928;18.522;2023-08-21T11:46:09;100905.00;;;29.30
22322;BMP180;11328;53.928;18.522;2023-08-21T11:48:40;100914.00;;;29.30
22322;BMP180;11328;53.928;18.522;2023-08-21T11:51:08;100908.00;;;29.60
22322;BMP180;11328;53.928;18.522;2023-08-21T11:53:41;100916.00;;;29.50
22322;BMP180;11328;53.928;18.522;2023-08-21T11:56:15;100910.00;;;29.30
22322;BMP180;11328;53.928;18.522;2023-08-21T11:58:46;100910.00;;;29.00
22322;BMP180;11328;53.928;18.522;2023-08-21T12:01:21;100917.00;;;29.10
22322;BMP180;11328;53.928;18.522;2023-08-21T12:03:48;100918.00;;;29.10
22322;BMP180;11328;53.928;18.522;2023-08-21T12:06:24;100902.00;;;29.10
22322;BMP180;11328;53.928;18.522;2023-08-21T12:08:52;100911.00;;;29.10
22322;BMP180;11328;53.928;18.522;2023-08-21T12:11:21;100902.00;;;29.10
22322;BMP180;11328;53.928;18.522;2023-08-21T12:13:48;100911.00;;;29.30
22322;BMP180;11328;53.928;18.522;2023-08-21T12:16:15;100910.00;;;29.30
22322;BMP180;11328;53.928;18.522;2023-08-21T12:18:42;100902.00;;;29.30
22322;BMP180;11328;53.928;18.522;2023-08-21T12:21:09;100894.00;;;29.10
22322;BMP180;11328;53.928;18.522;2023-08-21T12:23:35;100899.00;;;28.80
22322;BMP180;11328;53.928;18.522;2023-08-21T12:26:02;100891.00;;;28.70
22322;BMP180;11328;53.928;18.522;2023-08-21T12:28:29;100900.00;;;28.50
22322;BMP180;11328;53.928;18.522;2023-08-21T12:30:57;100889.00;;;28.60
22322;BMP180;11328;53.928;18.522;2023-08-21T12:33:24;100906.00;;;28.50
22322;BMP180;11328;53.928;18.522;2023-08-21T12:35:51;100905.00;;;28.40
22322;BMP180;11328;53.928;18.522;2023-08-21T12:38:18;100904.00;;;28.30
22322;BMP180;11328;53.928;18.522;2023-08-21T12:40:47;100902.00;;;28.20
22322;BMP180;11328;53.928;18.522;2023-08-21T12:43:14;100907.00;;;28.20
22322;BMP180;11328;53.928;18.522;2023-08-21T12:45:41;100902.00;;;28.10
22322;BMP180;11328;53.928;18.522;2023-08-21T12:48:11;100904.00;;;28.20
22322;BMP180;11328;53.928;18.522;2023-08-21T12:50:38;100899.00;;;28.20
22322;BMP180;11328;53.928;18.522;2023-08-21T12:53:05;100904.00;;;28.30
22322;BMP180;11328;53.928;18.522;2023-08-21T12:55:32;100898.00;;;28.20
22322;BMP180;11328;53.928;18.522;2023-08-21T12:57:59;100893.00;;;28.40
22322;BMP180;11328;53.928;18.522;2023-08-21T13:00:26;100897.00;;;28.60
22322;BMP180;11328;53.928;18.522;2023-08-21T13:02:53;100892.00;;;28.80
22322;BMP180;11328;53.928;18.522;2023-08-21T13:05:20;100871.00;;;28.90
22322;BMP180;11328;53.928;18.522;2023-08-21T13:07:47;100872.00;;;28.70
22322;BMP180;11328;53.928;18.522;2023-08-21T13:10:14;100882.00;;;28.80
22322;BMP180;11328;53.928;18.522;2023-08-21T13:12:41;100881.00;;;28.60
22322;BMP180;11328;53.928;18.522;2023-08-21T13:15:09;100870.00;;;28.50
22322;BMP180;11328;53.928;18.522;2023-08-21T13:17:36;100875.00;;;28.40
22322;BMP180;11328;53.928;18.522;2023-08-21T13:20:04;100869.00;;;28.70
22322;BMP180;11328;53.928;18.522;2023-08-21T13:22:51;100872.00;;;28.70
22322;BMP180;11328;53.928;18.522;2023-08-21T13:25:20;100872.00;;;29.00
22322;BMP180;11328;53.928;18.522;2023-08-21T13:27:47;100875.00;;;28.70
22322;BMP180;11328;53.928;18.522;2023-08-21T13:30:15;100877.00;;;28.50
22322;BMP180;11328;53.928;18.522;2023-08-21T13:32:43;100886.00;;;28.40
22322;BMP180;11328;53.928;18.522;2023-08-21T13:35:10;100883.00;;;28.30
22322;BMP180;11328;53.928;18.522;2023-08-21T13:37:39;100870.00;;;28.30
22322;BMP180;11328;53.928;18.522;2023-08-21T13:40:07;100872.00;;;28.30
22322;BMP180;11328;53.928;18.522;2023-08-21T13:42:48;100873.00;;;28.30
22322;BMP180;11328;53.928;18.522;2023-08-21T13:45:19;100876.00;;;28.30
22322;BMP180;11328;53.928;18.522;2023-08-21T13:47:48;100877.00;;;28.50
22322;BMP180;11328;53.928;18.522;2023-08-21T13:50:18;100873.00;;;28.60
22322;BMP180;11328;53.928;18.522;2023-08-21T13:52:47;100873.00;;;28.40
22322;BMP180;11328;53.928;18.522;2023-08-21T13:55:15;100870.00;;;28.40
22322;BMP180;11328;53.928;18.522;2023-08-21T13:57:43;100871.00;;;28.40
22322;BMP180;11328;53.928;18.522;2023-08-21T14:00:11;100873.00;;;28.50
22322;BMP180;11328;53.928;18.522;2023-08-21T14:02:40;100870.00;;;28.40
22322;BMP180;11328;53.928;18.522;2023-08-21T14:05:09;100872.00;;;28.60
22322;BMP180;11328;53.928;18.522;2023-08-21T14:07:38;100865.00;;;28.70